Time;durP1;ratioP1;P1;durP2;ratioP2;P2;SDS_P1;SDS_P2;PMS_P1;PMS_P2;Temp;Humidity;BMP_temperature;BMP_pressure;BME280_temperature;BME280_humidity;BME280_pressure;Samples;Min_cycle;Max_cycle;Signal;HPM_P1;HPM_P2
2023/10/05 00:03:46;;;;;;;0.53;0.53;;;;;;;;;;5074908;28;20270;-88
2023/10/05 00:06:23;;;;;;;0.67;0.67;;;;;;;;;;5073104;28;20227;-88
2023/10/05 00:08:50;;;;;;;0.60;0.60;;;;;;;;;;5074068;28;20183;-88
2023/10/05 00:11:35;;;;;;;0.60;0.60;;;;;;;;;;5074483;28;20201;-88
2023/10/05 00:14:10;;;;;;;0.70;0.70;;;;;;;;;;5074692;28;20171;-88
2023/10/05 00:16:36;;;;;;;0.60;0.60;;;;;;;;;;5076285;28;20224;-88
2023/10/05 00:19:12;;;;;;;0.50;0.50;;;;;;;;;;5095724;28;20167;-89
2023/10/05 00:21:40;;;;;;;0.60;0.60;;;;;;;;;;5096562;28;20210;-88
2023/10/05 00:24:07;;;;;;;0.60;0.60;;;;;;;;;;5085072;28;20202;-88
2023/10/05 00:26:36;;;;;;;0.60;0.60;;;;;;;;;;5074705;28;20266;-87
2023/10/05 00:29:19;;;;;;;0.70;0.70;;;;;;;;;;5074130;28;20194;-88
2023/10/05 00:31:48;;;;;;;0.60;0.60;;;;;;;;;;5073467;28;20215;-88
2023/10/05 00:36:49;;;;;;;0.50;0.50;;;;;;;;;;5073951;28;20186;-88
2023/10/05 00:39:18;;;;;;;0.60;0.60;;;;;;;;;;5073972;28;20610;-88
2023/10/05 00:41:44;;;;;;;0.60;0.60;;;;;;;;;;5073527;28;20265;-88
2023/10/05 00:44:12;;;;;;;0.50;0.50;;;;;;;;;;5073871;28;20170;-87
2023/10/05 00:46:39;;;;;;;0.60;0.60;;;;;;;;;;5072670;28;20598;-88
2023/10/05 00:49:19;;;;;;;0.50;0.50;;;;;;;;;;5074417;28;20177;-88
2023/10/05 00:51:58;;;;;;;0.60;0.60;;;;;;;;;;5074555;28;20274;-88
2023/10/05 00:54:30;;;;;;;0.70;0.70;;;;;;;;;;5075597;28;20249;-88
2023/10/05 00:56:57;;;;;;;0.70;0.70;;;;;;;;;;5074250;28;20895;-88
2023/10/05 00:59:24;;;;;;;0.60;0.60;;;;;;;;;;5073942;28;20196;-88
2023/10/05 01:04:34;;;;;;;0.70;0.70;;;;;;;;;;5078481;28;20667;-89
2023/10/05 01:07:17;;;;;;;0.60;0.60;;;;;;;;;;5089866;28;20242;-88
2023/10/05 01:12:26;;;;;;;0.70;0.70;;;;;;;;;;5097550;28;20198;-89
2023/10/05 01:14:52;;;;;;;0.67;0.67;;;;;;;;;;5097528;28;20166;-88
2023/10/05 01:17:20;;;;;;;0.57;0.57;;;;;;;;;;5094073;28;20561;-88
2023/10/05 01:19:47;;;;;;;0.60;0.60;;;;;;;;;;5090813;28;20182;-88
2023/10/05 01:22:16;;;;;;;0.60;0.60;;;;;;;;;;5090621;28;20194;-88
2023/10/05 01:24:45;;;;;;;0.60;0.60;;;;;;;;;;5091691;28;20174;-88
2023/10/05 01:27:11;;;;;;;0.60;0.60;;;;;;;;;;5094301;28;20166;-88
2023/10/05 01:29:37;;;;;;;0.70;0.70;;;;;;;;;;5094689;28;20174;-88
2023/10/05 01:32:03;;;;;;;0.60;0.60;;;;;;;;;;5094256;28;20203;-88
2023/10/05 01:34:29;;;;;;;0.70;0.70;;;;;;;;;;5077705;28;20173;-88
2023/10/05 01:36:56;;;;;;;0.70;0.70;;;;;;;;;;5075540;28;20193;-88
2023/10/05 01:39:22;;;;;;;0.60;0.60;;;;;;;;;;5076669;28;20179;-88
2023/10/05 01:41:48;;;;;;;0.60;0.60;;;;;;;;;;5074829;28;20218;-88
2023/10/05 01:44:14;;;;;;;0.60;0.60;;;;;;;;;;5076315;28;20182;-88
2023/10/05 01:46:41;;;;;;;0.60;0.60;;;;;;;;;;5075066;28;20265;-87
2023/10/05 01:49:08;;;;;;;0.60;0.60;;;;;;;;;;5076029;28;20649;-87
2023/10/05 01:51:34;;;;;;;0.67;0.67;;;;;;;;;;5076102;28;20291;-87
2023/10/05 01:54:11;;;;;;;0.60;0.60;;;;;;;;;;5076102;28;20194;-87
2023/10/05 01:56:37;;;;;;;0.60;0.60;;;;;;;;;;5074964;28;20201;-87
2023/10/05 01:59:06;;;;;;;0.70;0.70;;;;;;;;;;5075888;28;20220;-88
2023/10/05 02:01:36;;;;;;;0.70;0.70;;;;;;;;;;5074523;28;20214;-88
2023/10/05 02:04:03;;;;;;;0.50;0.50;;;;;;;;;;5076096;28;20175;-87
2023/10/05 02:06:39;;;;;;;0.63;0.63;;;;;;;;;;5074870;28;20166;-87
2023/10/05 02:09:05;;;;;;;0.60;0.60;;;;;;;;;;5074684;28;20658;-87
2023/10/05 02:11:33;;;;;;;0.60;0.60;;;;;;;;;;5075878;28;20277;-87
2023/10/05 02:14:03;;;;;;;0.60;0.60;;;;;;;;;;5076144;28;20186;-88
2023/10/05 02:16:30;;;;;;;0.63;0.63;;;;;;;;;;5076068;28;20167;-87
2023/10/05 02:18:56;;;;;;;0.70;0.70;;;;;;;;;;5074845;28;20190;-87
2023/10/05 02:21:36;;;;;;;0.60;0.60;;;;;;;;;;5074007;28;20210;-87
2023/10/05 02:24:18;;;;;;;0.60;0.60;;;;;;;;;;5076119;28;20258;-87
2023/10/05 02:27:09;;;;;;;0.60;0.60;;;;;;;;;;5076194;28;20223;-87
2023/10/05 02:29:31;;;;;;;0.70;0.70;;;;;;;;;;5076422;28;20206;-87
2023/10/05 02:34:44;;;;;;;0.70;0.70;;;;;;;;;;5076934;28;20210;-87
2023/10/05 02:37:11;;;;;;;0.63;0.63;;;;;;;;;;5091408;28;20178;-88
2023/10/05 02:39:38;;;;;;;0.60;0.60;;;;;;;;;;5098816;28;20196;-88
2023/10/05 02:42:14;;;;;;;0.70;0.70;;;;;;;;;;5097538;28;20212;-88
2023/10/05 02:44:41;;;;;;;0.60;0.60;;;;;;;;;;5098741;28;20265;-89
2023/10/05 02:47:10;;;;;;;0.60;0.60;;;;;;;;;;5097677;28;20187;-87
2023/10/05 02:49:43;;;;;;;0.70;0.70;;;;;;;;;;5092994;28;20632;-87
2023/10/05 02:52:13;;;;;;;0.73;0.73;;;;;;;;;;5074172;28;20194;-87
2023/10/05 02:54:40;;;;;;;0.70;0.70;;;;;;;;;;5075477;28;20250;-87
2023/10/05 02:57:11;;;;;;;0.70;0.70;;;;;;;;;;5074122;28;20171;-87
2023/10/05 02:59:37;;;;;;;0.60;0.60;;;;;;;;;;5074045;28;20192;-87
2023/10/05 03:02:06;;;;;;;0.60;0.60;;;;;;;;;;5073740;28;20225;-87
2023/10/05 03:04:45;;;;;;;0.60;0.60;;;;;;;;;;5074989;28;20183;-87
2023/10/05 03:07:15;;;;;;;0.70;0.70;;;;;;;;;;5079994;28;20241;-89
2023/10/05 03:09:42;;;;;;;0.50;0.50;;;;;;;;;;5099107;28;20163;-87
2023/10/05 03:12:08;;;;;;;0.77;0.77;;;;;;;;;;5094835;28;20190;-87
2023/10/05 03:14:34;;;;;;;0.67;0.67;;;;;;;;;;5073484;28;20178;-87
2023/10/05 03:17:04;;;;;;;0.60;0.60;;;;;;;;;;5074235;28;20264;-87
2023/10/05 03:19:33;;;;;;;0.60;0.60;;;;;;;;;;5074437;28;20187;-87
2023/10/05 03:22:04;;;;;;;0.50;0.50;;;;;;;;;;5073822;28;20194;-87
2023/10/05 03:24:30;;;;;;;0.57;0.57;;;;;;;;;;5074154;28;20182;-87
2023/10/05 03:26:56;;;;;;;0.60;0.60;;;;;;;;;;5075006;28;20213;-87
2023/10/05 03:29:22;;;;;;;0.50;0.50;;;;;;;;;;5075375;28;20208;-86
2023/10/05 03:34:33;;;;;;;0.60;0.60;;;;;;;;;;5073965;28;20178;-86
2023/10/05 03:37:07;;;;;;;0.70;0.70;;;;;;;;;;5075532;28;20182;-88
2023/10/05 03:39:38;;;;;;;0.70;0.70;;;;;;;;;;5073872;28;20174;-88
2023/10/05 03:42:05;;;;;;;0.50;0.50;;;;;;;;;;5072607;28;20201;-87
2023/10/05 03:44:31;;;;;;;0.67;0.67;;;;;;;;;;5073854;28;20174;-86
2023/10/05 03:46:57;;;;;;;0.70;0.70;;;;;;;;;;5074103;28;20182;-87
2023/10/05 03:49:24;;;;;;;0.50;0.50;;;;;;;;;;5073700;28;20632;-85
2023/10/05 03:51:50;;;;;;;0.60;0.60;;;;;;;;;;5077284;28;20194;-84
2023/10/05 03:54:20;;;;;;;0.67;0.67;;;;;;;;;;5078367;28;20182;-85
2023/10/05 03:56:50;;;;;;;0.60;0.60;;;;;;;;;;5078807;28;20179;-87
2023/10/05 03:59:16;;;;;;;0.60;0.60;;;;;;;;;;5080817;28;20285;-85
2023/10/05 04:01:48;;;;;;;0.70;0.70;;;;;;;;;;5080845;28;20210;-86
2023/10/05 04:04:15;;;;;;;0.60;0.60;;;;;;;;;;5079763;28;20170;-85
2023/10/05 04:06:42;;;;;;;0.60;0.60;;;;;;;;;;5079216;28;20539;-86
2023/10/05 04:09:15;;;;;;;0.80;0.80;;;;;;;;;;5079467;28;20587;-85
2023/10/05 04:11:43;;;;;;;0.70;0.70;;;;;;;;;;5076999;28;20198;-86
2023/10/05 04:14:09;;;;;;;0.60;0.60;;;;;;;;;;5079811;28;20253;-85
2023/10/05 04:16:35;;;;;;;0.70;0.70;;;;;;;;;;5080105;28;20178;-85
2023/10/05 04:19:04;;;;;;;0.60;0.60;;;;;;;;;;5073415;28;20179;-85
2023/10/05 04:21:34;;;;;;;0.60;0.60;;;;;;;;;;5066198;28;20202;-86
2023/10/05 04:24:00;;;;;;;0.70;0.70;;;;;;;;;;5072332;28;20538;-85
2023/10/05 04:26:32;;;;;;;0.50;0.50;;;;;;;;;;5076737;28;20190;-84
2023/10/05 04:28:59;;;;;;;0.70;0.70;;;;;;;;;;5067952;28;20179;-86
2023/10/05 04:31:25;;;;;;;0.60;0.60;;;;;;;;;;5079702;28;20714;-87
2023/10/05 04:33:52;;;;;;;0.60;0.60;;;;;;;;;;5090530;28;20181;-87
2023/10/05 04:36:22;;;;;;;0.67;0.67;;;;;;;;;;5096976;28;20166;-89
2023/10/05 04:38:48;;;;;;;0.53;0.53;;;;;;;;;;5095940;28;20170;-86
2023/10/05 04:41:14;;;;;;;0.53;0.53;;;;;;;;;;5079811;28;20218;-85
2023/10/05 04:43:43;;;;;;;0.60;0.60;;;;;;;;;;5075051;28;20179;-85
2023/10/05 04:46:10;;;;;;;0.70;0.70;;;;;;;;;;5069245;28;20550;-86
2023/10/05 04:48:38;;;;;;;0.70;0.70;;;;;;;;;;5060229;28;20213;-86
2023/10/05 04:51:07;;;;;;;0.60;0.60;;;;;;;;;;5056840;28;20194;-85
2023/10/05 04:53:35;;;;;;;0.60;0.60;;;;;;;;;;5063039;28;20183;-86
2023/10/05 04:56:22;;;;;;;0.60;0.60;;;;;;;;;;5076071;28;20213;-87
2023/10/05 05:01:46;;;;;;;0.63;0.63;;;;;;;;;;5079374;28;20220;-87
2023/10/05 05:04:27;;;;;;;0.60;0.60;;;;;;;;;;5067600;28;20550;-86
2023/10/05 05:06:53;;;;;;;0.60;0.60;;;;;;;;;;5065218;28;20710;-87
2023/10/05 05:09:21;;;;;;;0.63;0.63;;;;;;;;;;5066012;28;20179;-90
2023/10/05 05:11:49;;;;;;;0.60;0.60;;;;;;;;;;5075802;28;20671;-88
2023/10/05 05:14:15;;;;;;;0.60;0.60;;;;;;;;;;5063015;28;20175;-88
2023/10/05 05:16:43;;;;;;;0.60;0.60;;;;;;;;;;5067587;28;20720;-88
2023/10/05 05:19:10;;;;;;;0.60;0.60;;;;;;;;;;5071876;28;20542;-87
2023/10/05 05:21:36;;;;;;;0.60;0.60;;;;;;;;;;5060018;28;20726;-87
2023/10/05 05:24:05;;;;;;;0.60;0.60;;;;;;;;;;5063976;28;20598;-87
2023/10/05 05:26:31;;;;;;;0.60;0.60;;;;;;;;;;5066987;28;20179;-87
2023/10/05 05:28:58;;;;;;;0.50;0.50;;;;;;;;;;5071499;28;20167;-86
2023/10/05 05:31:24;;;;;;;0.60;0.60;;;;;;;;;;5078851;28;20225;-86
2023/10/05 05:33:52;;;;;;;0.77;0.77;;;;;;;;;;5076746;28;20179;-87
2023/10/05 05:36:17;;;;;;;0.70;0.70;;;;;;;;;;5093199;28;20175;-86
2023/10/05 05:38:58;;;;;;;0.60;0.60;;;;;;;;;;5072714;28;20171;-87
2023/10/05 05:41:27;;;;;;;0.50;0.50;;;;;;;;;;5075156;28;20226;-87
2023/10/05 05:43:53;;;;;;;0.53;0.53;;;;;;;;;;5071696;28;20197;-86
2023/10/05 05:46:20;;;;;;;0.70;0.70;;;;;;;;;;5079336;28;20238;-87
2023/10/05 05:48:51;;;;;;;0.60;0.60;;;;;;;;;;5065483;28;20455;-88
2023/10/05 05:51:17;;;;;;;0.60;0.60;;;;;;;;;;5070000;28;20194;-85
2023/10/05 05:53:44;;;;;;;0.70;0.70;;;;;;;;;;5074096;28;20170;-85
2023/10/05 05:56:19;;;;;;;0.70;0.70;;;;;;;;;;5074669;28;20357;-88
2023/10/05 05:58:48;;;;;;;0.57;0.57;;;;;;;;;;5081361;28;20175;-87
2023/10/05 06:01:14;;;;;;;0.60;0.60;;;;;;;;;;5082494;28;20225;-87
2023/10/05 06:03:43;;;;;;;0.60;0.60;;;;;;;;;;5084392;28;20190;-87
2023/10/05 06:06:09;;;;;;;0.77;0.77;;;;;;;;;;5081713;28;20232;-86
2023/10/05 06:08:36;;;;;;;0.60;0.60;;;;;;;;;;5086677;28;20247;-88
2023/10/05 06:11:07;;;;;;;0.70;0.70;;;;;;;;;;5084574;28;20263;-87
2023/10/05 06:13:36;;;;;;;0.70;0.70;;;;;;;;;;5087438;28;20155;-87
2023/10/05 06:16:03;;;;;;;0.50;0.50;;;;;;;;;;5080961;28;20183;-86
2023/10/05 06:18:31;;;;;;;0.60;0.60;;;;;;;;;;5081262;28;20175;-88
2023/10/05 06:20:57;;;;;;;0.50;0.50;;;;;;;;;;5069103;28;20203;-87
2023/10/05 06:23:23;;;;;;;0.60;0.60;;;;;;;;;;5068408;28;20224;-87
2023/10/05 06:25:51;;;;;;;0.60;0.60;;;;;;;;;;5077268;28;20198;-88
2023/10/05 06:28:17;;;;;;;0.70;0.70;;;;;;;;;;5063621;28;20193;-87
2023/10/05 06:30:46;;;;;;;0.60;0.60;;;;;;;;;;5070789;28;20178;-87
2023/10/05 06:33:12;;;;;;;0.60;0.60;;;;;;;;;;5073157;28;20179;-87
2023/10/05 06:35:39;;;;;;;0.60;0.60;;;;;;;;;;5065447;28;20226;-88
2023/10/05 06:38:05;;;;;;;0.60;0.60;;;;;;;;;;5078075;28;20178;-87
2023/10/05 06:40:33;;;;;;;0.60;0.60;;;;;;;;;;5061816;28;20191;-87
2023/10/05 06:43:00;;;;;;;0.60;0.60;;;;;;;;;;5055686;28;20218;-90
2023/10/05 06:45:26;;;;;;;0.60;0.60;;;;;;;;;;5060511;28;20190;-86
2023/10/05 06:47:52;;;;;;;0.60;0.60;;;;;;;;;;5066229;28;20163;-86
2023/10/05 06:50:18;;;;;;;0.60;0.60;;;;;;;;;;5069193;28;20181;-85
2023/10/05 06:52:48;;;;;;;0.70;0.70;;;;;;;;;;5060351;28;20202;-87
2023/10/05 06:55:21;;;;;;;0.70;0.70;;;;;;;;;;5062528;28;20198;-86
2023/10/05 06:57:50;;;;;;;0.50;0.50;;;;;;;;;;5057515;28;20237;-87
2023/10/05 07:00:16;;;;;;;0.60;0.60;;;;;;;;;;5055827;28;20206;-87
2023/10/05 07:02:46;;;;;;;0.50;0.50;;;;;;;;;;5065154;28;20221;-87
2023/10/05 07:05:12;;;;;;;0.60;0.60;;;;;;;;;;5077064;28;20175;-86
2023/10/05 07:07:40;;;;;;;0.60;0.60;;;;;;;;;;5077217;28;20179;-86
2023/10/05 07:10:07;;;;;;;0.67;0.67;;;;;;;;;;5076159;28;20220;-88
2023/10/05 07:12:38;;;;;;;0.60;0.60;;;;;;;;;;5075553;28;20198;-87
2023/10/05 07:15:05;;;;;;;0.60;0.60;;;;;;;;;;5075759;28;20177;-87
2023/10/05 07:17:31;;;;;;;0.50;0.50;;;;;;;;;;5072916;28;20183;-86
2023/10/05 07:19:57;;;;;;;0.60;0.60;;;;;;;;;;5076817;28;20174;-87
2023/10/05 07:22:24;;;;;;;0.70;0.70;;;;;;;;;;5079077;28;20698;-87
2023/10/05 07:24:50;;;;;;;0.47;0.47;;;;;;;;;;5075367;28;20178;-87
2023/10/05 07:27:16;;;;;;;0.60;0.60;;;;;;;;;;5076464;28;20648;-87
2023/10/05 07:29:45;;;;;;;0.50;0.50;;;;;;;;;;5076837;28;20179;-86
2023/10/05 07:32:12;;;;;;;0.50;0.50;;;;;;;;;;5076712;28;20225;-87
2023/10/05 07:34:38;;;;;;;0.60;0.60;;;;;;;;;;5076423;28;20182;-88
2023/10/05 07:37:05;;;;;;;0.60;0.60;;;;;;;;;;5076952;28;20209;-88
2023/10/05 07:39:31;;;;;;;0.50;0.50;;;;;;;;;;5075124;28;20242;-87
2023/10/05 07:41:59;;;;;;;0.60;0.60;;;;;;;;;;5075060;28;20649;-88
2023/10/05 07:44:27;;;;;;;0.60;0.60;;;;;;;;;;5074898;28;20655;-87
2023/10/05 07:46:53;;;;;;;0.60;0.60;;;;;;;;;;5076846;28;20170;-87
2023/10/05 07:49:20;;;;;;;0.60;0.60;;;;;;;;;;5072923;28;20175;-86
2023/10/05 07:51:46;;;;;;;0.43;0.43;;;;;;;;;;5058335;28;20199;-84
2023/10/05 07:54:12;;;;;;;0.60;0.60;;;;;;;;;;5057111;28;20660;-88
2023/10/05 07:56:38;;;;;;;0.50;0.50;;;;;;;;;;5056522;28;20265;-86
2023/10/05 07:59:04;;;;;;;0.47;0.47;;;;;;;;;;5056077;28;20222;-88
2023/10/05 08:01:30;;;;;;;0.40;0.40;;;;;;;;;;5056364;28;20211;-87
2023/10/05 08:03:58;;;;;;;0.60;0.60;;;;;;;;;;5056318;28;20230;-86
2023/10/05 08:06:25;;;;;;;0.50;0.50;;;;;;;;;;5056552;28;20214;-85
2023/10/05 08:08:51;;;;;;;0.40;0.40;;;;;;;;;;5057663;28;20561;-85
2023/10/05 08:11:17;;;;;;;0.40;0.40;;;;;;;;;;5057364;28;20245;-88
2023/10/05 08:13:43;;;;;;;0.33;0.33;;;;;;;;;;5055649;28;20210;-85
2023/10/05 08:16:09;;;;;;;0.50;0.50;;;;;;;;;;5076825;28;20170;-85
2023/10/05 08:18:36;;;;;;;0.40;0.40;;;;;;;;;;5076544;28;20231;-84
2023/10/05 08:21:02;;;;;;;0.50;0.50;;;;;;;;;;5077996;28;20219;-85
2023/10/05 08:23:31;;;;;;;0.33;0.33;;;;;;;;;;5077352;28;20699;-87
2023/10/05 08:25:57;;;;;;;0.40;0.40;;;;;;;;;;5082329;28;20171;-84
2023/10/05 08:28:24;;;;;;;0.40;0.40;;;;;;;;;;5080736;28;20166;-88
2023/10/05 08:31:06;;;;;;;0.40;0.40;;;;;;;;;;5080034;28;20197;-86
2023/10/05 08:33:35;;;;;;;0.40;0.40;;;;;;;;;;5080235;28;20208;-85
2023/10/05 08:36:11;;;;;;;0.40;0.40;;;;;;;;;;5076223;28;20201;-86
2023/10/05 08:38:37;;;;;;;0.40;0.40;;;;;;;;;;5080209;28;20189;-85
2023/10/05 08:41:11;;;;;;;0.30;0.30;;;;;;;;;;5078042;28;20676;-86
2023/10/05 08:43:40;;;;;;;0.40;0.40;;;;;;;;;;5076823;28;20181;-85
2023/10/05 08:46:11;;;;;;;0.40;0.40;;;;;;;;;;5077833;28;20174;-86
2023/10/05 08:48:37;;;;;;;0.50;0.50;;;;;;;;;;5085790;28;20247;-83
2023/10/05 08:51:06;;;;;;;0.30;0.30;;;;;;;;;;5093884;28;20263;-83
2023/10/05 08:53:33;;;;;;;0.33;0.33;;;;;;;;;;5094058;28;20203;-84
2023/10/05 08:55:59;;;;;;;0.30;0.30;;;;;;;;;;5090066;28;20220;-84
2023/10/05 08:58:28;;;;;;;0.40;0.40;;;;;;;;;;5093067;28;20197;-83
2023/10/05 09:00:59;;;;;;;0.40;0.40;;;;;;;;;;5095037;28;20233;-84
2023/10/05 09:03:29;;;;;;;0.30;0.30;;;;;;;;;;5082971;28;20182;-85
2023/10/05 09:06:20;;;;;;;0.30;0.30;;;;;;;;;;5074962;28;20190;-87
2023/10/05 09:09:07;;;;;;;0.40;0.40;;;;;;;;;;5065195;28;20167;-88
2023/10/05 09:11:34;;;;;;;0.20;0.20;;;;;;;;;;5070999;28;20254;-85
2023/10/05 09:14:08;;;;;;;0.30;0.30;;;;;;;;;;5065010;28;20183;-87
2023/10/05 09:16:41;;;;;;;0.30;0.30;;;;;;;;;;5057052;28;20644;-88
2023/10/05 09:19:08;;;;;;;0.30;0.30;;;;;;;;;;5053373;28;20612;-85
2023/10/05 09:21:44;;;;;;;0.40;0.40;;;;;;;;;;5068382;28;20702;-86
2023/10/05 09:24:19;;;;;;;0.30;0.30;;;;;;;;;;5070863;28;20173;-86
2023/10/05 09:26:56;;;;;;;0.30;0.30;;;;;;;;;;5095807;28;20222;-85
2023/10/05 09:29:30;;;;;;;0.40;0.40;;;;;;;;;;5098294;28;20170;-88
2023/10/05 09:31:58;;;;;;;0.30;0.30;;;;;;;;;;5096717;28;20197;-87
2023/10/05 09:34:41;;;;;;;0.30;0.30;;;;;;;;;;5098619;28;20194;-88
2023/10/05 09:37:09;;;;;;;0.30;0.30;;;;;;;;;;5097725;28;20182;-87
2023/10/05 09:39:43;;;;;;;0.30;0.30;;;;;;;;;;5097915;28;20181;-86
2023/10/05 09:42:16;;;;;;;0.30;0.30;;;;;;;;;;5096936;28;20301;-87
2023/10/05 09:44:47;;;;;;;0.20;0.20;;;;;;;;;;5095682;28;20182;-86
2023/10/05 09:47:13;;;;;;;0.20;0.20;;;;;;;;;;5098638;28;20174;-85
2023/10/05 09:49:39;;;;;;;0.27;0.27;;;;;;;;;;5100576;28;20169;-86
2023/10/05 09:52:08;;;;;;;0.30;0.30;;;;;;;;;;5100422;28;20204;-85
2023/10/05 09:54:36;;;;;;;0.30;0.30;;;;;;;;;;5084828;28;20171;-87
2023/10/05 09:57:10;;;;;;;0.20;0.20;;;;;;;;;;5073748;28;20186;-89
2023/10/05 09:59:37;;;;;;;0.30;0.30;;;;;;;;;;5059601;28;20183;-84
2023/10/05 10:02:03;;;;;;;0.30;0.30;;;;;;;;;;5058546;28;20207;-85
2023/10/05 10:04:36;;;;;;;0.30;0.30;;;;;;;;;;5083129;28;20170;-84
2023/10/05 10:07:04;;;;;;;0.40;0.40;;;;;;;;;;5099439;28;20183;-85
2023/10/05 10:09:32;;;;;;;0.50;0.50;;;;;;;;;;5089362;28;20176;-85
2023/10/05 10:12:01;;;;;;;0.50;0.50;;;;;;;;;;5067769;28;20186;-86
2023/10/05 10:14:29;;;;;;;0.40;0.40;;;;;;;;;;5078792;28;20731;-85
2023/10/05 10:17:02;;;;;;;0.40;0.40;;;;;;;;;;5079075;28;20182;-84
2023/10/05 10:19:43;;;;;;;0.40;0.40;;;;;;;;;;5080906;28;20178;-84
2023/10/05 10:22:12;;;;;;;0.50;0.50;;;;;;;;;;5078499;28;20213;-84
2023/10/05 10:24:40;;;;;;;0.40;0.40;;;;;;;;;;5077878;28;20175;-87
2023/10/05 10:27:14;;;;;;;0.50;0.50;;;;;;;;;;5066734;28;20172;-85
2023/10/05 10:29:53;;;;;;;0.50;0.50;;;;;;;;;;5072765;28;20516;-85
2023/10/05 10:32:21;;;;;;;0.40;0.40;;;;;;;;;;5075077;28;20225;-86
2023/10/05 10:34:52;;;;;;;0.40;0.40;;;;;;;;;;5077541;28;20182;-88
2023/10/05 10:37:36;;;;;;;0.40;0.40;;;;;;;;;;5092136;28;20648;-85
2023/10/05 10:40:25;;;;;;;0.40;0.40;;;;;;;;;;5095707;28;20178;-87
2023/10/05 10:45:32;;;;;;;0.40;0.40;;;;;;;;;;5078378;28;20182;-86
2023/10/05 10:47:58;;;;;;;0.50;0.50;;;;;;;;;;5079207;28;20170;-87
2023/10/05 10:50:30;;;;;;;0.50;0.50;;;;;;;;;;5080400;28;20204;-87
2023/10/05 10:52:58;;;;;;;0.40;0.40;;;;;;;;;;5083392;28;20723;-86
2023/10/05 10:55:34;;;;;;;0.30;0.30;;;;;;;;;;5081125;28;20611;-85
2023/10/05 10:58:04;;;;;;;0.50;0.50;;;;;;;;;;5083876;28;20174;-88
2023/10/05 11:03:18;;;;;;;0.47;0.47;;;;;;;;;;5087415;28;20264;-85
2023/10/05 11:05:47;;;;;;;0.40;0.40;;;;;;;;;;5081830;28;20835;-84
2023/10/05 11:08:20;;;;;;;0.30;0.30;;;;;;;;;;5086185;28;20201;-85
2023/10/05 11:11:16;;;;;;;0.40;0.40;;;;;;;;;;5081549;28;20173;-84
2023/10/05 11:13:43;;;;;;;0.30;0.30;;;;;;;;;;5085524;28;20185;-84
2023/10/05 11:16:09;;;;;;;0.40;0.40;;;;;;;;;;5083695;28;20197;-85
2023/10/05 11:18:39;;;;;;;0.33;0.33;;;;;;;;;;5084564;28;20182;-85
2023/10/05 11:21:13;;;;;;;0.40;0.40;;;;;;;;;;5084919;28;20240;-85
2023/10/05 11:23:55;;;;;;;0.30;0.30;;;;;;;;;;5085438;28;20170;-85
2023/10/05 11:26:28;;;;;;;0.30;0.30;;;;;;;;;;5086994;28;20204;-83
2023/10/05 11:28:56;;;;;;;0.30;0.30;;;;;;;;;;5093075;28;20177;-83
2023/10/05 11:31:26;;;;;;;0.33;0.33;;;;;;;;;;5091144;28;20191;-82
2023/10/05 11:33:53;;;;;;;0.33;0.33;;;;;;;;;;5085948;28;20171;-84
2023/10/05 11:36:27;;;;;;;0.20;0.20;;;;;;;;;;5084275;28;20245;-84
2023/10/05 11:38:57;;;;;;;0.30;0.30;;;;;;;;;;5084207;28;20166;-84
2023/10/05 11:41:24;;;;;;;0.30;0.30;;;;;;;;;;5084296;28;20240;-84
2023/10/05 11:43:52;;;;;;;0.30;0.30;;;;;;;;;;5083828;28;20236;-83
2023/10/05 11:46:24;;;;;;;0.30;0.30;;;;;;;;;;5068739;28;20171;-84
2023/10/05 11:48:56;;;;;;;0.20;0.20;;;;;;;;;;5062751;28;20172;-84
2023/10/05 11:51:41;;;;;;;0.30;0.30;;;;;;;;;;5063719;28;20274;-83
2023/10/05 11:54:08;;;;;;;0.30;0.30;;;;;;;;;;5062790;28;20530;-83
2023/10/05 11:56:34;;;;;;;0.30;0.30;;;;;;;;;;5063356;28;20266;-84
2023/10/05 11:59:00;;;;;;;0.30;0.30;;;;;;;;;;5070914;28;20274;-84
2023/10/05 12:01:27;;;;;;;0.30;0.30;;;;;;;;;;5072394;28;20210;-83
2023/10/05 12:03:54;;;;;;;0.30;0.30;;;;;;;;;;5070622;28;20175;-82
2023/10/05 12:06:23;;;;;;;0.30;0.30;;;;;;;;;;5072600;28;20175;-84
2023/10/05 12:08:53;;;;;;;0.40;0.40;;;;;;;;;;5081398;28;20168;-85
2023/10/05 12:11:23;;;;;;;0.30;0.30;;;;;;;;;;5070547;28;20206;-87
2023/10/05 12:13:49;;;;;;;0.30;0.30;;;;;;;;;;5069043;28;20203;-83
2023/10/05 12:16:15;;;;;;;0.30;0.30;;;;;;;;;;5066772;28;20171;-83
2023/10/05 12:18:42;;;;;;;0.30;0.30;;;;;;;;;;5071355;28;20285;-83
2023/10/05 12:21:09;;;;;;;0.30;0.30;;;;;;;;;;5073397;28;20225;-83
2023/10/05 12:23:38;;;;;;;0.30;0.30;;;;;;;;;;5065722;28;20182;-85
2023/10/05 12:26:04;;;;;;;0.30;0.30;;;;;;;;;;5066875;28;20167;-86
2023/10/05 12:28:33;;;;;;;0.30;0.30;;;;;;;;;;5070836;28;20179;-85
2023/10/05 12:31:00;;;;;;;0.40;0.40;;;;;;;;;;5062784;28;20175;-83
2023/10/05 12:33:27;;;;;;;0.30;0.30;;;;;;;;;;5060676;28;20175;-85
2023/10/05 12:35:53;;;;;;;0.40;0.40;;;;;;;;;;5061510;28;20171;-83
2023/10/05 12:38:21;;;;;;;0.40;0.40;;;;;;;;;;5059220;28;20243;-85
2023/10/05 12:40:47;;;;;;;0.30;0.30;;;;;;;;;;5059228;28;20219;-84
2023/10/05 12:43:15;;;;;;;0.40;0.40;;;;;;;;;;5058543;28;20186;-85
2023/10/05 12:45:44;;;;;;;0.37;0.37;;;;;;;;;;5060225;28;20183;-83
2023/10/05 12:48:14;;;;;;;0.30;0.30;;;;;;;;;;5066581;23;20223;-84
2023/10/05 12:50:41;;;;;;;0.30;0.30;;;;;;;;;;5054095;28;20171;-86
2023/10/05 12:53:07;;;;;;;0.27;0.27;;;;;;;;;;5054192;28;20182;-84
2023/10/05 12:55:33;;;;;;;0.30;0.30;;;;;;;;;;5053864;28;20236;-85
2023/10/05 12:58:08;;;;;;;0.30;0.30;;;;;;;;;;5052948;28;20171;-85
2023/10/05 13:00:40;;;;;;;0.30;0.30;;;;;;;;;;5053192;28;20289;-84
2023/10/05 13:03:06;;;;;;;0.40;0.40;;;;;;;;;;5052683;28;20175;-87
2023/10/05 13:05:39;;;;;;;0.37;0.37;;;;;;;;;;5053932;28;20186;-86
2023/10/05 13:08:10;;;;;;;0.30;0.30;;;;;;;;;;5054464;28;20198;-86
2023/10/05 13:10:37;;;;;;;0.30;0.30;;;;;;;;;;5040043;28;20573;-85
2023/10/05 13:13:09;;;;;;;0.30;0.30;;;;;;;;;;5039620;28;20183;-86
2023/10/05 13:15:36;;;;;;;0.30;0.30;;;;;;;;;;5059259;28;20223;-88
2023/10/05 13:18:17;;;;;;;0.30;0.30;;;;;;;;;;5071832;28;20179;-87
2023/10/05 13:20:44;;;;;;;0.30;0.30;;;;;;;;;;5073109;28;20225;-87
2023/10/05 13:23:13;;;;;;;0.30;0.30;;;;;;;;;;5049019;28;20189;-87
2023/10/05 13:25:48;;;;;;;0.30;0.30;;;;;;;;;;5041792;28;20209;-88
2023/10/05 13:28:15;;;;;;;0.40;0.40;;;;;;;;;;5040374;28;20273;-88
2023/10/05 13:30:43;;;;;;;0.50;0.50;;;;;;;;;;5051990;28;20293;-87
2023/10/05 13:33:21;;;;;;;0.50;0.50;;;;;;;;;;5045511;28;20201;-84
2023/10/05 13:35:48;;;;;;;0.40;0.40;;;;;;;;;;5059046;28;20175;-85
2023/10/05 13:38:17;;;;;;;0.40;0.40;;;;;;;;;;5039362;28;20184;-88
2023/10/05 13:41:13;;;;;;;0.40;0.40;;;;;;;;;;5058265;28;20256;-86
2023/10/05 13:43:39;;;;;;;0.33;0.33;;;;;;;;;;5046606;28;20319;-85
2023/10/05 13:48:39;;;;;;;0.30;0.30;;;;;;;;;;5053992;28;20210;-83
2023/10/05 13:51:07;;;;;;;0.40;0.40;;;;;;;;;;5052446;28;20712;-85
2023/10/05 13:53:34;;;;;;;0.40;0.40;;;;;;;;;;5059106;28;20636;-84
2023/10/05 13:56:01;;;;;;;0.40;0.40;;;;;;;;;;5060161;28;20183;-85
2023/10/05 13:58:27;;;;;;;0.30;0.30;;;;;;;;;;5059325;28;20179;-87
2023/10/05 14:01:01;;;;;;;0.30;0.30;;;;;;;;;;5055461;28;20635;-88
2023/10/05 14:03:28;;;;;;;0.33;0.33;;;;;;;;;;5056993;28;20661;-90
2023/10/05 14:06:01;;;;;;;0.30;0.30;;;;;;;;;;5057799;28;20205;-88
2023/10/05 14:08:27;;;;;;;0.40;0.40;;;;;;;;;;5056836;28;20179;-87
2023/10/05 14:10:54;;;;;;;0.40;0.40;;;;;;;;;;5056187;28;20182;-86
2023/10/05 14:13:20;;;;;;;0.40;0.40;;;;;;;;;;5055024;28;20186;-87
2023/10/05 14:15:48;;;;;;;0.30;0.30;;;;;;;;;;5049480;28;20175;-86
2023/10/05 14:18:16;;;;;;;0.40;0.40;;;;;;;;;;5065727;28;20190;-86
2023/10/05 14:20:47;;;;;;;0.50;0.50;;;;;;;;;;5078382;28;20187;-87
2023/10/05 14:23:13;;;;;;;0.40;0.40;;;;;;;;;;5078949;28;20194;-87
2023/10/05 14:25:39;;;;;;;0.37;0.37;;;;;;;;;;5067577;28;20233;-87
2023/10/05 14:28:07;;;;;;;0.40;0.40;;;;;;;;;;5055057;28;20237;-87
2023/10/05 14:30:33;;;;;;;0.30;0.30;;;;;;;;;;5055601;28;20270;-83
2023/10/05 14:32:59;;;;;;;0.40;0.40;;;;;;;;;;5055114;28;20226;-87
2023/10/05 14:35:26;;;;;;;0.33;0.33;;;;;;;;;;5054860;28;20186;-88
2023/10/05 14:37:52;;;;;;;0.40;0.40;;;;;;;;;;5054471;28;20195;-88
2023/10/05 14:40:21;;;;;;;0.40;0.40;;;;;;;;;;5055285;28;20585;-88
2023/10/05 14:42:53;;;;;;;0.33;0.33;;;;;;;;;;5060242;28;20203;-88
2023/10/05 14:45:26;;;;;;;0.30;0.30;;;;;;;;;;5060253;28;20528;-88
2023/10/05 14:47:52;;;;;;;0.30;0.30;;;;;;;;;;5057036;28;20191;-89
2023/10/05 14:50:19;;;;;;;0.50;0.50;;;;;;;;;;5055297;28;20409;-88
2023/10/05 14:52:49;;;;;;;0.40;0.40;;;;;;;;;;5053649;28;20195;-87
2023/10/05 14:55:17;;;;;;;0.40;0.40;;;;;;;;;;5054703;28;20625;-88
2023/10/05 14:57:44;;;;;;;0.50;0.50;;;;;;;;;;5055160;28;20175;-89
2023/10/05 15:00:11;;;;;;;0.40;0.40;;;;;;;;;;5055047;28;20201;-87
2023/10/05 15:02:39;;;;;;;0.40;0.40;;;;;;;;;;5054794;28;20218;-85
2023/10/05 15:05:25;;;;;;;0.47;0.47;;;;;;;;;;5053952;28;20187;-87
2023/10/05 15:07:58;;;;;;;0.40;0.40;;;;;;;;;;5055356;28;20178;-87
2023/10/05 15:10:25;;;;;;;0.30;0.30;;;;;;;;;;5055196;28;20179;-92
2023/10/05 15:12:52;;;;;;;0.40;0.40;;;;;;;;;;5055972;28;20262;-86
2023/10/05 15:15:19;;;;;;;0.30;0.30;;;;;;;;;;5057292;28;20240;-86
2023/10/05 15:17:45;;;;;;;0.40;0.40;;;;;;;;;;5055044;28;20215;-86
2023/10/05 15:20:14;;;;;;;0.33;0.33;;;;;;;;;;5053999;28;20172;-86
2023/10/05 15:22:42;;;;;;;0.40;0.40;;;;;;;;;;5055241;28;20206;-86